sensor_id;sensor_type;location;lat;lon;timestamp;P1;durP1;ratioP1;P2;durP2;ratioP2
5955;SDS011;3004;48.080;11.600;2022-09-03T00:00:25;77.97;;;3.47;;
5955;SDS011;3004;48.080;11.600;2022-09-03T00:02:56;78.00;;;3.40;;
5955;SDS011;3004;48.080;11.600;2022-09-03T00:05:31;77.70;;;3.40;;
5955;SDS011;3004;48.080;11.600;2022-09-03T00:08:05;77.27;;;3.33;;
5955;SDS011;3004;48.080;11.600;2022-09-03T00:10:43;78.53;;;4.20;;
5955;SDS011;3004;48.080;11.600;2022-09-03T00:13:17;77.70;;;3.30;;
5955;SDS011;3004;48.080;11.600;2022-09-03T00:15:50;77.40;;;3.30;;
5955;SDS011;3004;48.080;11.600;2022-09-03T00:18:22;77.20;;;3.40;;
5955;SDS011;3004;48.080;11.600;2022-09-03T00:20:56;77.40;;;3.60;;
5955;SDS011;3004;48.080;11.600;2022-09-03T00:23:35;77.27;;;3.43;;
5955;SDS011;3004;48.080;11.600;2022-09-03T00:26:13;76.80;;;3.50;;
5955;SDS011;3004;48.080;11.600;2022-09-03T00:28:49;77.30;;;3.40;;
5955;SDS011;3004;48.080;11.600;2022-09-03T00:31:24;77.10;;;3.33;;
5955;SDS011;3004;48.080;11.600;2022-09-03T00:33:57;77.40;;;3.43;;
5955;SDS011;3004;48.080;11.600;2022-09-03T00:36:30;76.90;;;3.50;;
5955;SDS011;3004;48.080;11.600;2022-09-03T00:39:07;79.43;;;3.70;;
5955;SDS011;3004;48.080;11.600;2022-09-03T00:41:37;77.20;;;3.50;;
5955;SDS011;3004;48.080;11.600;2022-09-03T00:44:13;76.93;;;3.50;;
5955;SDS011;3004;48.080;11.600;2022-09-03T00:46:59;77.07;;;3.73;;
5955;SDS011;3004;48.080;11.600;2022-09-03T00:49:34;77.17;;;3.40;;
5955;SDS011;3004;48.080;11.600;2022-09-03T00:52:15;77.00;;;3.33;;
5955;SDS011;3004;48.080;11.600;2022-09-03T00:54:53;77.27;;;3.40;;
5955;SDS011;3004;48.080;11.600;2022-09-03T00:57:29;77.20;;;3.50;;
5955;SDS011;3004;48.080;11.600;2022-09-03T01:00:05;77.27;;;3.60;;
5955;SDS011;3004;48.080;11.600;2022-09-03T01:02:41;77.00;;;3.60;;
5955;SDS011;3004;48.080;11.600;2022-09-03T01:05:27;76.80;;;3.40;;
5955;SDS011;3004;48.080;11.600;2022-09-03T01:08:09;77.50;;;3.57;;
5955;SDS011;3004;48.080;11.600;2022-09-03T01:10:57;76.83;;;3.60;;
5955;SDS011;3004;48.080;11.600;2022-09-03T01:13:38;76.50;;;3.50;;
5955;SDS011;3004;48.080;11.600;2022-09-03T01:16:13;76.47;;;3.50;;
5955;SDS011;3004;48.080;11.600;2022-09-03T01:18:49;76.70;;;3.63;;
5955;SDS011;3004;48.080;11.600;2022-09-03T01:21:36;77.40;;;3.70;;
5955;SDS011;3004;48.080;11.600;2022-09-03T01:24:38;77.40;;;3.40;;
5955;SDS011;3004;48.080;11.600;2022-09-03T01:27:28;77.70;;;3.70;;
5955;SDS011;3004;48.080;11.600;2022-09-03T01:30:04;78.37;;;3.90;;
5955;SDS011;3004;48.080;11.600;2022-09-03T01:32:42;77.80;;;3.63;;
5955;SDS011;3004;48.080;11.600;2022-09-03T01:35:19;77.90;;;3.70;;
5955;SDS011;3004;48.080;11.600;2022-09-03T01:38:00;78.63;;;4.10;;
5955;SDS011;3004;48.080;11.600;2022-09-03T01:40:40;77.73;;;3.50;;
5955;SDS011;3004;48.080;11.600;2022-09-03T01:43:23;78.40;;;4.20;;
5955;SDS011;3004;48.080;11.600;2022-09-03T01:46:03;77.67;;;3.60;;
5955;SDS011;3004;48.080;11.600;2022-09-03T01:48:42;77.30;;;3.50;;
5955;SDS011;3004;48.080;11.600;2022-09-03T01:51:19;76.80;;;3.50;;
5955;SDS011;3004;48.080;11.600;2022-09-03T01:54:01;77.30;;;3.60;;
5955;SDS011;3004;48.080;11.600;2022-09-03T01:56:47;77.50;;;3.90;;
5955;SDS011;3004;48.080;11.600;2022-09-03T01:59:40;77.47;;;3.63;;
5955;SDS011;3004;48.080;11.600;2022-09-03T02:02:13;77.37;;;3.63;;
5955;SDS011;3004;48.080;11.600;2022-09-03T02:04:53;77.80;;;3.60;;
5955;SDS011;3004;48.080;11.600;2022-09-03T02:07:24;77.37;;;3.70;;
5955;SDS011;3004;48.080;11.600;2022-09-03T02:09:57;77.90;;;3.60;;
5955;SDS011;3004;48.080;11.600;2022-09-03T02:12:25;77.90;;;3.70;;
5955;SDS011;3004;48.080;11.600;2022-09-03T02:14:57;77.50;;;3.60;;
5955;SDS011;3004;48.080;11.600;2022-09-03T02:17:29;77.57;;;3.53;;
5955;SDS011;3004;48.080;11.600;2022-09-03T02:19:57;77.50;;;3.40;;
5955;SDS011;3004;48.080;11.600;2022-09-03T02:22:27;77.47;;;3.60;;
5955;SDS011;3004;48.080;11.600;2022-09-03T02:24:54;77.20;;;3.80;;
5955;SDS011;3004;48.080;11.600;2022-09-03T02:27:21;77.40;;;3.60;;
5955;SDS011;3004;48.080;11.600;2022-09-03T02:29:49;77.30;;;3.90;;
5955;SDS011;3004;48.080;11.600;2022-09-03T02:32:16;77.10;;;3.70;;
5955;SDS011;3004;48.080;11.600;2022-09-03T02:34:45;76.47;;;3.83;;
5955;SDS011;3004;48.080;11.600;2022-09-03T02:37:12;77.07;;;3.70;;
5955;SDS011;3004;48.080;11.600;2022-09-03T02:39:40;77.30;;;3.93;;
5955;SDS011;3004;48.080;11.600;2022-09-03T02:42:07;76.67;;;3.50;;
5955;SDS011;3004;48.080;11.600;2022-09-03T02:44:37;76.67;;;3.70;;
5955;SDS011;3004;48.080;11.600;2022-09-03T02:47:10;76.50;;;3.60;;
5955;SDS011;3004;48.080;11.600;2022-09-03T02:49:39;77.00;;;3.60;;
5955;SDS011;3004;48.080;11.600;2022-09-03T02:52:08;77.40;;;3.60;;
5955;SDS011;3004;48.080;11.600;2022-09-03T02:54:36;77.97;;;3.73;;
5955;SDS011;3004;48.080;11.600;2022-09-03T02:57:05;77.87;;;3.80;;
5955;SDS011;3004;48.080;11.600;2022-09-03T02:59:32;77.50;;;3.70;;
5955;SDS011;3004;48.080;11.600;2022-09-03T03:01:59;77.13;;;3.70;;
5955;SDS011;3004;48.080;11.600;2022-09-03T03:04:27;77.27;;;4.00;;
5955;SDS011;3004;48.080;11.600;2022-09-03T03:06:55;76.90;;;3.70;;
5955;SDS011;3004;48.080;11.600;2022-09-03T03:09:23;76.70;;;3.60;;
5955;SDS011;3004;48.080;11.600;2022-09-03T03:11:50;79.90;;;4.00;;
5955;SDS011;3004;48.080;11.600;2022-09-03T03:14:19;75.97;;;3.67;;
5955;SDS011;3004;48.080;11.600;2022-09-03T03:16:47;77.13;;;3.70;;
5955;SDS011;3004;48.080;11.600;2022-09-03T03:19:14;77.97;;;3.80;;
5955;SDS011;3004;48.080;11.600;2022-09-03T03:21:41;77.00;;;3.60;;
5955;SDS011;3004;48.080;11.600;2022-09-03T03:24:13;77.63;;;4.03;;
5955;SDS011;3004;48.080;11.600;2022-09-03T03:26:42;77.60;;;3.60;;
5955;SDS011;3004;48.080;11.600;2022-09-03T03:29:11;77.80;;;3.67;;
5955;SDS011;3004;48.080;11.600;2022-09-03T03:31:42;77.57;;;3.60;;
5955;SDS011;3004;48.080;11.600;2022-09-03T03:34:09;78.23;;;3.80;;
5955;SDS011;3004;48.080;11.600;2022-09-03T03:36:36;79.10;;;3.70;;
5955;SDS011;3004;48.080;11.600;2022-09-03T03:39:03;77.37;;;3.50;;
5955;SDS011;3004;48.080;11.600;2022-09-03T03:41:31;77.90;;;3.40;;
5955;SDS011;3004;48.080;11.600;2022-09-03T03:44:01;78.10;;;3.80;;
5955;SDS011;3004;48.080;11.600;2022-09-03T03:46:33;78.40;;;3.80;;
5955;SDS011;3004;48.080;11.600;2022-09-03T03:49:01;77.17;;;3.50;;
5955;SDS011;3004;48.080;11.600;2022-09-03T03:51:28;78.20;;;3.53;;
5955;SDS011;3004;48.080;11.600;2022-09-03T03:53:56;78.10;;;3.60;;
5955;SDS011;3004;48.080;11.600;2022-09-03T03:56:25;78.70;;;3.70;;
5955;SDS011;3004;48.080;11.600;2022-09-03T03:58:53;80.60;;;3.80;;
5955;SDS011;3004;48.080;11.600;2022-09-03T04:01:22;79.83;;;3.90;;
5955;SDS011;3004;48.080;11.600;2022-09-03T04:03:50;80.77;;;4.00;;
5955;SDS011;3004;48.080;11.600;2022-09-03T04:06:20;79.77;;;3.60;;
5955;SDS011;3004;48.080;11.600;2022-09-03T04:08:50;79.70;;;3.80;;
5955;SDS011;3004;48.080;11.600;2022-09-03T04:11:17;79.67;;;3.60;;
5955;SDS011;3004;48.080;11.600;2022-09-03T04:13:46;80.07;;;3.70;;
5955;SDS011;3004;48.080;11.600;2022-09-03T04:16:15;80.77;;;3.80;;
5955;SDS011;3004;48.080;11.600;2022-09-03T04:18:44;79.70;;;3.70;;
5955;SDS011;3004;48.080;11.600;2022-09-03T04:21:11;80.03;;;4.10;;
5955;SDS011;3004;48.080;11.600;2022-09-03T04:23:40;80.03;;;4.00;;
5955;SDS011;3004;48.080;11.600;2022-09-03T04:26:09;80.50;;;3.80;;
5955;SDS011;3004;48.080;11.600;2022-09-03T04:28:37;80.20;;;4.27;;
5955;SDS011;3004;48.080;11.600;2022-09-03T04:31:06;79.80;;;3.70;;
5955;SDS011;3004;48.080;11.600;2022-09-03T04:33:34;79.90;;;4.00;;
5955;SDS011;3004;48.080;11.600;2022-09-03T04:36:05;80.00;;;3.90;;
5955;SDS011;3004;48.080;11.600;2022-09-03T04:38:36;79.53;;;3.67;;
5955;SDS011;3004;48.080;11.600;2022-09-03T04:41:04;80.27;;;3.87;;
5955;SDS011;3004;48.080;11.600;2022-09-03T04:43:32;79.87;;;3.90;;
5955;SDS011;3004;48.080;11.600;2022-09-03T04:46:00;80.30;;;4.10;;
5955;SDS011;3004;48.080;11.600;2022-09-03T04:48:31;80.27;;;3.90;;
5955;SDS011;3004;48.080;11.600;2022-09-03T04:51:02;81.47;;;4.00;;
5955;SDS011;3004;48.080;11.600;2022-09-03T04:53:37;80.90;;;3.90;;
5955;SDS011;3004;48.080;11.600;2022-09-03T04:56:10;79.87;;;3.80;;
5955;SDS011;3004;48.080;11.600;2022-09-03T04:58:38;80.40;;;3.80;;
5955;SDS011;3004;48.080;11.600;2022-09-03T05:01:07;80.30;;;3.90;;
5955;SDS011;3004;48.080;11.600;2022-09-03T05:03:35;80.20;;;3.90;;
5955;SDS011;3004;48.080;11.600;2022-09-03T05:06:03;79.97;;;3.90;;
5955;SDS011;3004;48.080;11.600;2022-09-03T05:08:33;79.60;;;3.90;;
5955;SDS011;3004;48.080;11.600;2022-09-03T05:11:01;80.10;;;3.90;;
5955;SDS011;3004;48.080;11.600;2022-09-03T05:13:31;80.50;;;4.03;;
5955;SDS011;3004;48.080;11.600;2022-09-03T05:16:01;80.40;;;3.90;;
5955;SDS011;3004;48.080;11.600;2022-09-03T05:18:29;80.27;;;3.97;;
5955;SDS011;3004;48.080;11.600;2022-09-03T05:21:00;80.47;;;3.97;;
5955;SDS011;3004;48.080;11.600;2022-09-03T05:23:34;80.37;;;3.90;;
5955;SDS011;3004;48.080;11.600;2022-09-03T05:26:03;80.80;;;4.10;;
5955;SDS011;3004;48.080;11.600;2022-09-03T05:28:33;80.77;;;4.00;;
5955;SDS011;3004;48.080;11.600;2022-09-03T05:31:02;81.10;;;4.10;;
5955;SDS011;3004;48.080;11.600;2022-09-03T05:33:32;81.47;;;4.40;;
5955;SDS011;3004;48.080;11.600;2022-09-03T05:36:00;80.77;;;3.90;;
5955;SDS011;3004;48.080;11.600;2022-09-03T05:38:28;81.10;;;4.10;;
5955;SDS011;3004;48.080;11.600;2022-09-03T05:41:01;80.87;;;4.03;;
5955;SDS011;3004;48.080;11.600;2022-09-03T05:43:30;81.33;;;3.90;;
5955;SDS011;3004;48.080;11.600;2022-09-03T05:45:58;81.30;;;4.00;;
5955;SDS011;3004;48.080;11.600;2022-09-03T05:48:27;81.90;;;4.20;;
5955;SDS011;3004;48.080;11.600;2022-09-03T05:50:58;81.67;;;3.90;;
5955;SDS011;3004;48.080;11.600;2022-09-03T05:53:26;81.80;;;4.20;;
5955;SDS011;3004;48.080;11.600;2022-09-03T05:55:54;81.47;;;4.20;;
5955;SDS011;3004;48.080;11.600;2022-09-03T05:58:31;81.60;;;4.10;;
5955;SDS011;3004;48.080;11.600;2022-09-03T06:00:59;81.50;;;4.10;;
5955;SDS011;3004;48.080;11.600;2022-09-03T06:03:26;81.07;;;4.20;;
5955;SDS011;3004;48.080;11.600;2022-09-03T06:05:53;81.70;;;4.07;;
5955;SDS011;3004;48.080;11.600;2022-09-03T06:08:20;81.40;;;4.00;;
5955;SDS011;3004;48.080;11.600;2022-09-03T06:10:47;80.80;;;4.20;;
5955;SDS011;3004;48.080;11.600;2022-09-03T06:13:15;81.10;;;4.20;;
5955;SDS011;3004;48.080;11.600;2022-09-03T06:15:43;80.10;;;4.40;;
5955;SDS011;3004;48.080;11.600;2022-09-03T06:18:10;79.43;;;4.50;;
5955;SDS011;3004;48.080;11.600;2022-09-03T06:20:37;78.60;;;4.17;;
5955;SDS011;3004;48.080;11.600;2022-09-03T06:23:04;78.20;;;4.20;;
5955;SDS011;3004;48.080;11.600;2022-09-03T06:25:31;78.97;;;4.30;;
5955;SDS011;3004;48.080;11.600;2022-09-03T06:27:58;78.73;;;4.10;;
5955;SDS011;3004;48.080;11.600;2022-09-03T06:30:56;78.60;;;4.40;;
5955;SDS011;3004;48.080;11.600;2022-09-03T06:33:23;79.77;;;4.67;;
5955;SDS011;3004;48.080;11.600;2022-09-03T06:35:55;78.07;;;4.07;;
5955;SDS011;3004;48.080;11.600;2022-09-03T06:38:23;78.00;;;3.97;;
5955;SDS011;3004;48.080;11.600;2022-09-03T06:40:52;78.10;;;4.30;;
5955;SDS011;3004;48.080;11.600;2022-09-03T06:43:20;78.67;;;4.40;;
5955;SDS011;3004;48.080;11.600;2022-09-03T06:45:55;78.20;;;3.97;;
5955;SDS011;3004;48.080;11.600;2022-09-03T06:48:24;78.60;;;4.00;;
5955;SDS011;3004;48.080;11.600;2022-09-03T06:50:55;78.07;;;3.93;;
5955;SDS011;3004;48.080;11.600;2022-09-03T06:53:24;78.83;;;4.00;;
5955;SDS011;3004;48.080;11.600;2022-09-03T06:55:54;78.20;;;4.00;;
5955;SDS011;3004;48.080;11.600;2022-09-03T06:58:22;78.20;;;4.30;;
5955;SDS011;3004;48.080;11.600;2022-09-03T07:00:49;78.77;;;4.13;;
5955;SDS011;3004;48.080;11.600;2022-09-03T07:03:19;78.60;;;4.27;;
5955;SDS011;3004;48.080;11.600;2022-09-03T07:05:46;77.90;;;4.20;;
5955;SDS011;3004;48.080;11.600;2022-09-03T07:08:13;78.27;;;4.10;;
5955;SDS011;3004;48.080;11.600;2022-09-03T07:10:46;79.57;;;4.70;;
5955;SDS011;3004;48.080;11.600;2022-09-03T07:13:18;78.00;;;4.10;;
5955;SDS011;3004;48.080;11.600;2022-09-03T07:15:45;77.47;;;4.17;;
5955;SDS011;3004;48.080;11.600;2022-09-03T07:18:13;77.60;;;4.10;;
5955;SDS011;3004;48.080;11.600;2022-09-03T07:20:42;78.77;;;4.13;;
5955;SDS011;3004;48.080;11.600;2022-09-03T07:23:09;77.70;;;3.87;;
5955;SDS011;3004;48.080;11.600;2022-09-03T07:25:37;79.40;;;4.47;;
5955;SDS011;3004;48.080;11.600;2022-09-03T07:28:04;80.10;;;4.50;;
5955;SDS011;3004;48.080;11.600;2022-09-03T07:30:34;79.07;;;4.20;;
5955;SDS011;3004;48.080;11.600;2022-09-03T07:33:01;80.17;;;4.17;;
5955;SDS011;3004;48.080;11.600;2022-09-03T07:35:31;78.97;;;4.03;;
5955;SDS011;3004;48.080;11.600;2022-09-03T07:38:06;79.33;;;4.00;;
5955;SDS011;3004;48.080;11.600;2022-09-03T07:40:34;79.80;;;4.30;;
5955;SDS011;3004;48.080;11.600;2022-09-03T07:43:00;79.77;;;4.07;;
5955;SDS011;3004;48.080;11.600;2022-09-03T07:45:28;79.80;;;4.10;;
5955;SDS011;3004;48.080;11.600;2022-09-03T07:47:58;79.33;;;4.03;;
5955;SDS011;3004;48.080;11.600;2022-09-03T07:50:25;78.97;;;4.03;;
5955;SDS011;3004;48.080;11.600;2022-09-03T07:52:55;79.57;;;4.00;;
5955;SDS011;3004;48.080;11.600;2022-09-03T07:55:24;80.07;;;4.10;;
5955;SDS011;3004;48.080;11.600;2022-09-03T07:57:54;79.77;;;4.10;;
5955;SDS011;3004;48.080;11.600;2022-09-03T08:00:21;80.30;;;4.23;;
5955;SDS011;3004;48.080;11.600;2022-09-03T08:02:51;81.47;;;4.10;;
5955;SDS011;3004;48.080;11.600;2022-09-03T08:05:23;81.97;;;4.50;;
5955;SDS011;3004;48.080;11.600;2022-09-03T08:07:50;81.27;;;4.20;;
5955;SDS011;3004;48.080;11.600;2022-09-03T08:10:19;81.17;;;4.40;;
5955;SDS011;3004;48.080;11.600;2022-09-03T08:12:52;81.67;;;4.20;;
5955;SDS011;3004;48.080;11.600;2022-09-03T08:15:19;81.60;;;4.40;;
5955;SDS011;3004;48.080;11.600;2022-09-03T08:17:46;81.40;;;4.27;;
5955;SDS011;3004;48.080;11.600;2022-09-03T08:20:13;82.37;;;4.40;;
5955;SDS011;3004;48.080;11.600;2022-09-03T08:22:40;81.13;;;4.17;;
5955;SDS011;3004;48.080;11.600;2022-09-03T08:25:07;81.70;;;4.27;;
5955;SDS011;3004;48.080;11.600;2022-09-03T08:27:34;82.00;;;4.30;;
5955;SDS011;3004;48.080;11.600;2022-09-03T08:30:03;82.00;;;4.60;;
5955;SDS011;3004;48.080;11.600;2022-09-03T08:32:36;82.53;;;4.40;;
5955;SDS011;3004;48.080;11.600;2022-09-03T08:35:04;82.47;;;4.50;;
5955;SDS011;3004;48.080;11.600;2022-09-03T08:37:34;82.57;;;4.37;;
5955;SDS011;3004;48.080;11.600;2022-09-03T08:40:01;82.07;;;4.23;;
5955;SDS011;3004;48.080;11.600;2022-09-03T08:42:38;82.07;;;4.37;;
5955;SDS011;3004;48.080;11.600;2022-09-03T08:45:15;81.97;;;4.27;;
5955;SDS011;3004;48.080;11.600;2022-09-03T08:47:47;82.27;;;4.57;;
5955;SDS011;3004;48.080;11.600;2022-09-03T08:50:21;82.10;;;4.33;;
5955;SDS011;3004;48.080;11.600;2022-09-03T08:52:51;81.37;;;4.20;;
5955;SDS011;3004;48.080;11.600;2022-09-03T08:55:26;81.50;;;4.20;;
5955;SDS011;3004;48.080;11.600;2022-09-03T08:57:57;81.20;;;4.30;;
5955;SDS011;3004;48.080;11.600;2022-09-03T09:00:38;81.70;;;4.40;;
5955;SDS011;3004;48.080;11.600;2022-09-03T09:03:26;81.60;;;4.50;;
5955;SDS011;3004;48.080;11.600;2022-09-03T09:06:17;82.60;;;5.20;;
5955;SDS011;3004;48.080;11.600;2022-09-03T09:08:53;81.97;;;4.40;;
5955;SDS011;3004;48.080;11.600;2022-09-03T09:11:34;81.03;;;4.50;;
5955;SDS011;3004;48.080;11.600;2022-09-03T09:14:17;80.40;;;4.70;;
5955;SDS011;3004;48.080;11.600;2022-09-03T09:16:53;81.07;;;4.60;;
5955;SDS011;3004;48.080;11.600;2022-09-03T09:19:32;80.60;;;4.70;;
5955;SDS011;3004;48.080;11.600;2022-09-03T09:22:08;80.77;;;4.80;;
5955;SDS011;3004;48.080;11.600;2022-09-03T09:24:41;79.37;;;4.63;;
5955;SDS011;3004;48.080;11.600;2022-09-03T09:27:12;79.50;;;4.47;;
5955;SDS011;3004;48.080;11.600;2022-09-03T09:29:45;79.97;;;4.80;;
5955;SDS011;3004;48.080;11.600;2022-09-03T09:32:17;78.00;;;4.30;;
5955;SDS011;3004;48.080;11.600;2022-09-03T09:34:47;77.50;;;4.20;;
5955;SDS011;3004;48.080;11.600;2022-09-03T09:37:15;77.30;;;4.20;;
5955;SDS011;3004;48.080;11.600;2022-09-03T09:39:52;78.37;;;4.33;;
5955;SDS011;3004;48.080;11.600;2022-09-03T09:42:21;77.50;;;4.27;;
5955;SDS011;3004;48.080;11.600;2022-09-03T09:44:49;76.20;;;4.50;;
5955;SDS011;3004;48.080;11.600;2022-09-03T09:47:21;75.20;;;3.80;;
5955;SDS011;3004;48.080;11.600;2022-09-03T09:49:52;76.40;;;4.00;;
5955;SDS011;3004;48.080;11.600;2022-09-03T09:52:20;74.87;;;3.90;;
5955;SDS011;3004;48.080;11.600;2022-09-03T09:54:50;75.17;;;4.00;;
5955;SDS011;3004;48.080;11.600;2022-09-03T09:57:20;74.60;;;4.20;;
5955;SDS011;3004;48.080;11.600;2022-09-03T09:59:49;74.07;;;4.20;;
5955;SDS011;3004;48.080;11.600;2022-09-03T10:02:33;73.03;;;3.90;;
5955;SDS011;3004;48.080;11.600;2022-09-03T10:05:11;73.80;;;3.97;;
5955;SDS011;3004;48.080;11.600;2022-09-03T10:07:41;73.20;;;3.60;;
5955;SDS011;3004;48.080;11.600;2022-09-03T10:10:19;74.77;;;4.20;;
5955;SDS011;3004;48.080;11.600;2022-09-03T10:12:50;74.07;;;4.00;;
5955;SDS011;3004;48.080;11.600;2022-09-03T10:15:24;72.30;;;3.60;;
5955;SDS011;3004;48.080;11.600;2022-09-03T10:18:01;72.20;;;3.50;;
5955;SDS011;3004;48.080;11.600;2022-09-03T10:20:35;71.87;;;3.47;;
5955;SDS011;3004;48.080;11.600;2022-09-03T10:23:10;71.47;;;3.23;;
5955;SDS011;3004;48.080;11.600;2022-09-03T10:25:47;72.60;;;4.17;;
5955;SDS011;3004;48.080;11.600;2022-09-03T10:28:23;71.77;;;3.40;;
5955;SDS011;3004;48.080;11.600;2022-09-03T10:31:01;71.40;;;3.40;;
5955;SDS011;3004;48.080;11.600;2022-09-03T10:33:57;71.67;;;3.10;;
5955;SDS011;3004;48.080;11.600;2022-09-03T10:36:30;71.57;;;3.30;;
5955;SDS011;3004;48.080;11.600;2022-09-03T10:39:05;71.30;;;3.10;;
5955;SDS011;3004;48.080;11.600;2022-09-03T10:41:41;71.43;;;3.33;;
5955;SDS011;3004;48.080;11.600;2022-09-03T10:44:30;70.90;;;3.13;;
5955;SDS011;3004;48.080;11.600;2022-09-03T10:47:16;71.90;;;3.50;;
5955;SDS011;3004;48.080;11.600;2022-09-03T10:49:55;70.90;;;2.90;;
5955;SDS011;3004;48.080;11.600;2022-09-03T10:52:29;71.47;;;3.00;;
5955;SDS011;3004;48.080;11.600;2022-09-03T10:55:17;72.80;;;3.00;;
5955;SDS011;3004;48.080;11.600;2022-09-03T10:57:53;70.70;;;2.90;;
5955;SDS011;3004;48.080;11.600;2022-09-03T11:00:29;70.67;;;2.70;;
5955;SDS011;3004;48.080;11.600;2022-09-03T11:03:07;70.40;;;2.80;;
5955;SDS011;3004;48.080;11.600;2022-09-03T11:05:55;70.67;;;3.07;;
5955;SDS011;3004;48.080;11.600;2022-09-03T11:08:27;71.13;;;3.20;;
5955;SDS011;3004;48.080;11.600;2022-09-03T11:10:59;71.70;;;2.90;;
5955;SDS011;3004;48.080;11.600;2022-09-03T11:13:34;70.50;;;2.97;;
5955;SDS011;3004;48.080;11.600;2022-09-03T11:16:07;71.00;;;2.77;;
5955;SDS011;3004;48.080;11.600;2022-09-03T11:18:40;70.27;;;2.60;;
5955;SDS011;3004;48.080;11.600;2022-09-03T11:21:15;70.07;;;2.57;;
5955;SDS011;3004;48.080;11.600;2022-09-03T11:23:46;70.30;;;2.57;;
5955;SDS011;3004;48.080;11.600;2022-09-03T11:26:19;71.50;;;2.40;;
5955;SDS011;3004;48.080;11.600;2022-09-03T11:28:51;70.27;;;2.20;;
5955;SDS011;3004;48.080;11.600;2022-09-03T11:31:24;71.40;;;2.30;;
5955;SDS011;3004;48.080;11.600;2022-09-03T11:34:05;70.37;;;2.20;;
5955;SDS011;3004;48.080;11.600;2022-09-03T11:36:39;70.17;;;2.40;;
5955;SDS011;3004;48.080;11.600;2022-09-03T11:39:13;69.83;;;2.17;;
5955;SDS011;3004;48.080;11.600;2022-09-03T11:41:55;70.30;;;2.67;;
5955;SDS011;3004;48.080;11.600;2022-09-03T11:44:23;70.07;;;2.10;;
5955;SDS011;3004;48.080;11.600;2022-09-03T11:47:01;70.57;;;2.30;;
5955;SDS011;3004;48.080;11.600;2022-09-03T11:49:43;69.60;;;1.80;;
5955;SDS011;3004;48.080;11.600;2022-09-03T11:52:25;70.53;;;1.97;;
5955;SDS011;3004;48.080;11.600;2022-09-03T11:54:53;70.30;;;2.33;;
5955;SDS011;3004;48.080;11.600;2022-09-03T11:57:25;70.00;;;2.10;;
5955;SDS011;3004;48.080;11.600;2022-09-03T11:59:54;70.00;;;2.00;;
5955;SDS011;3004;48.080;11.600;2022-09-03T12:02:36;70.33;;;2.13;;
5955;SDS011;3004;48.080;11.600;2022-09-03T12:05:17;69.47;;;1.90;;
5955;SDS011;3004;48.080;11.600;2022-09-03T12:10:49;70.00;;;2.10;;
5955;SDS011;3004;48.080;11.600;2022-09-03T12:13:27;71.10;;;2.07;;
5955;SDS011;3004;48.080;11.600;2022-09-03T12:16:11;69.93;;;1.80;;
5955;SDS011;3004;48.080;11.600;2022-09-03T12:19:00;69.87;;;1.80;;
5955;SDS011;3004;48.080;11.600;2022-09-03T12:21:36;69.87;;;1.80;;
5955;SDS011;3004;48.080;11.600;2022-09-03T12:24:07;69.60;;;2.10;;
5955;SDS011;3004;48.080;11.600;2022-09-03T12:26:37;70.07;;;1.80;;
5955;SDS011;3004;48.080;11.600;2022-09-03T12:29:06;69.50;;;1.90;;
5955;SDS011;3004;48.080;11.600;2022-09-03T12:31:54;70.70;;;2.00;;
5955;SDS011;3004;48.080;11.600;2022-09-03T12:34:23;69.57;;;1.60;;
5955;SDS011;3004;48.080;11.600;2022-09-03T12:36:52;70.00;;;1.90;;
5955;SDS011;3004;48.080;11.600;2022-09-03T12:39:21;70.23;;;1.90;;
5955;SDS011;3004;48.080;11.600;2022-09-03T12:41:53;70.00;;;1.50;;
5955;SDS011;3004;48.080;11.600;2022-09-03T12:44:26;70.57;;;1.93;;
5955;SDS011;3004;48.080;11.600;2022-09-03T12:47:02;71.10;;;2.17;;
5955;SDS011;3004;48.080;11.600;2022-09-03T12:49:34;69.60;;;1.70;;
5955;SDS011;3004;48.080;11.600;2022-09-03T12:52:03;70.80;;;2.10;;
5955;SDS011;3004;48.080;11.600;2022-09-03T12:54:38;69.87;;;1.60;;
5955;SDS011;3004;48.080;11.600;2022-09-03T12:57:12;70.10;;;1.63;;
5955;SDS011;3004;48.080;11.600;2022-09-03T12:59:44;70.77;;;1.80;;
5955;SDS011;3004;48.080;11.600;2022-09-03T13:02:15;70.20;;;1.77;;
5955;SDS011;3004;48.080;11.600;2022-09-03T13:04:48;70.37;;;1.60;;
5955;SDS011;3004;48.080;11.600;2022-09-03T13:07:20;70.07;;;1.70;;
5955;SDS011;3004;48.080;11.600;2022-09-03T13:09:51;70.27;;;1.53;;
5955;SDS011;3004;48.080;11.600;2022-09-03T13:12:28;71.20;;;1.60;;
5955;SDS011;3004;48.080;11.600;2022-09-03T13:15:03;70.00;;;1.43;;
5955;SDS011;3004;48.080;11.600;2022-09-03T13:17:37;71.27;;;1.80;;
5955;SDS011;3004;48.080;11.600;2022-09-03T13:20:24;70.00;;;1.50;;
5955;SDS011;3004;48.080;11.600;2022-09-03T13:23:01;69.70;;;1.50;;
5955;SDS011;3004;48.080;11.600;2022-09-03T13:25:52;70.47;;;1.70;;
5955;SDS011;3004;48.080;11.600;2022-09-03T13:28:29;70.57;;;1.70;;
5955;SDS011;3004;48.080;11.600;2022-09-03T13:31:05;69.97;;;1.47;;
5955;SDS011;3004;48.080;11.600;2022-09-03T13:33:52;70.37;;;2.00;;
5955;SDS011;3004;48.080;11.600;2022-09-03T13:36:25;70.47;;;1.70;;
5955;SDS011;3004;48.080;11.600;2022-09-03T13:38:57;70.70;;;1.50;;
5955;SDS011;3004;48.080;11.600;2022-09-03T13:41:33;70.07;;;1.70;;
5955;SDS011;3004;48.080;11.600;2022-09-03T13:44:06;69.70;;;1.30;;
5955;SDS011;3004;48.080;11.600;2022-09-03T13:46:39;69.47;;;1.40;;
5955;SDS011;3004;48.080;11.600;2022-09-03T13:49:15;70.10;;;1.50;;
5955;SDS011;3004;48.080;11.600;2022-09-03T13:52:11;70.07;;;1.70;;
5955;SDS011;3004;48.080;11.600;2022-09-03T13:54:48;69.90;;;1.60;;
5955;SDS011;3004;48.080;11.600;2022-09-03T13:57:36;69.80;;;1.70;;
5955;SDS011;3004;48.080;11.600;2022-09-03T14:00:11;71.00;;;2.40;;
5955;SDS011;3004;48.080;11.600;2022-09-03T14:02:49;69.77;;;1.90;;
5955;SDS011;3004;48.080;11.600;2022-09-03T14:05:23;69.83;;;1.70;;
5955;SDS011;3004;48.080;11.600;2022-09-03T14:08:04;70.07;;;2.00;;
5955;SDS011;3004;48.080;11.600;2022-09-03T14:10:51;70.47;;;1.90;;
5955;SDS011;3004;48.080;11.600;2022-09-03T14:13:35;70.63;;;2.50;;
5955;SDS011;3004;48.080;11.600;2022-09-03T14:16:13;69.87;;;1.80;;
5955;SDS011;3004;48.080;11.600;2022-09-03T14:18:50;69.83;;;1.63;;
5955;SDS011;3004;48.080;11.600;2022-09-03T14:21:23;69.97;;;1.73;;
5955;SDS011;3004;48.080;11.600;2022-09-03T14:23:58;70.13;;;2.03;;
5955;SDS011;3004;48.080;11.600;2022-09-03T14:26:32;69.70;;;1.97;;
5955;SDS011;3004;48.080;11.600;2022-09-03T14:29:06;70.37;;;2.00;;
5955;SDS011;3004;48.080;11.600;2022-09-03T14:31:46;71.00;;;2.30;;
5955;SDS011;3004;48.080;11.600;2022-09-03T14:34:29;71.47;;;2.60;;
5955;SDS011;3004;48.080;11.600;2022-09-03T14:37:10;71.87;;;2.87;;
5955;SDS011;3004;48.080;11.600;2022-09-03T14:39:49;72.77;;;3.10;;
5955;SDS011;3004;48.080;11.600;2022-09-03T14:42:58;74.17;;;3.30;;
5955;SDS011;3004;48.080;11.600;2022-09-03T16:19:50;78.73;;;4.00;;
5955;SDS011;3004;48.080;11.600;2022-09-03T16:22:29;77.97;;;3.90;;
5955;SDS011;3004;48.080;11.600;2022-09-03T16:25:06;78.20;;;3.90;;
5955;SDS011;3004;48.080;11.600;2022-09-03T16:27:36;78.30;;;4.10;;
5955;SDS011;3004;48.080;11.600;2022-09-03T16:30:08;78.20;;;4.10;;
5955;SDS011;3004;48.080;11.600;2022-09-03T16:32:53;78.47;;;4.23;;
5955;SDS011;3004;48.080;11.600;2022-09-03T16:35:30;78.20;;;4.10;;
5955;SDS011;3004;48.080;11.600;2022-09-03T16:38:08;77.97;;;4.03;;
5955;SDS011;3004;48.080;11.600;2022-09-03T16:40:45;78.60;;;4.20;;
5955;SDS011;3004;48.080;11.600;2022-09-03T16:43:24;78.77;;;4.30;;
5955;SDS011;3004;48.080;11.600;2022-09-03T16:46:05;78.87;;;4.30;;
5955;SDS011;3004;48.080;11.600;2022-09-03T16:48:49;78.70;;;4.17;;
5955;SDS011;3004;48.080;11.600;2022-09-03T16:51:27;78.70;;;4.20;;
5955;SDS011;3004;48.080;11.600;2022-09-03T16:54:07;78.50;;;4.20;;
5955;SDS011;3004;48.080;11.600;2022-09-03T16:56:53;78.73;;;4.20;;
5955;SDS011;3004;48.080;11.600;2022-09-03T16:59:35;78.53;;;4.20;;
5955;SDS011;3004;48.080;11.600;2022-09-03T17:02:27;79.07;;;4.40;;